Terminal Aerodrome Forecast
Issued by NWS

Home | Current Version | Previous Version | Text Only | Print | Product List | Glossary On
Versions: 1 2 3 4 5 6 7 8 9 10 11 12 13
000
FTUS46 KLOX 222300 RRA
TAFWJF
TAF
KWJF 222343Z 2300/2324 23018G26KT P6SM SKC
     FM230300 24014KT P6SM SKC
     FM230700 25008KT P6SM SKC
     FM231800 25012KT P6SM SKC
     FM232000 25017G25KT P6SM SKC=

USA.gov is the U.S. government's official web portal to all federal, state and local government web resources and services.